createdAt,value
2018-08-10T00:01:04.902Z,100.00
2018-08-10T00:03:33.882Z,100.00
2018-08-10T00:06:02.821Z,100.00
2018-08-10T00:08:31.684Z,100.00
2018-08-10T00:11:00.600Z,100.00
2018-08-10T00:13:29.523Z,100.00
2018-08-10T00:15:58.375Z,100.00
2018-08-10T00:18:27.174Z,100.00
2018-08-10T00:20:56.071Z,100.00
2018-08-10T00:23:24.977Z,100.00
2018-08-10T00:25:53.803Z,100.00
2018-08-10T00:28:22.706Z,100.00
2018-08-10T00:30:51.527Z,100.00
2018-08-10T00:33:20.336Z,100.00
2018-08-10T00:35:49.236Z,100.00
2018-08-10T00:38:18.100Z,100.00
2018-08-10T00:40:46.927Z,100.00
2018-08-10T00:43:15.827Z,100.00
2018-08-10T00:45:44.651Z,100.00
2018-08-10T00:48:13.523Z,100.00
2018-08-10T00:50:42.369Z,100.00
2018-08-10T00:53:11.262Z,100.00
2018-08-10T00:55:40.154Z,100.00
2018-08-10T00:58:09.145Z,100.00
2018-08-10T01:00:38.009Z,100.00
2018-08-10T01:03:07.006Z,100.00
2018-08-10T01:05:35.974Z,100.00
2018-08-10T01:08:04.875Z,100.00
2018-08-10T01:10:33.825Z,100.00
2018-08-10T01:13:02.708Z,100.00
2018-08-10T01:15:31.536Z,100.00
2018-08-10T01:18:00.345Z,100.00
2018-08-10T01:20:29.245Z,100.00
2018-08-10T01:23:03.079Z,100.00
2018-08-10T01:25:31.979Z,100.00
2018-08-10T01:28:03.101Z,98.77
2018-08-10T01:30:33.165Z,97.78
2018-08-10T01:33:02.294Z,97.67
2018-08-10T01:35:31.459Z,93.27
2018-08-10T01:38:01.465Z,92.96
2018-08-10T01:40:30.381Z,91.62
2018-08-10T01:42:59.220Z,90.60
2018-08-10T01:45:28.140Z,92.02
2018-08-10T01:47:56.983Z,92.04
2018-08-10T01:50:25.811Z,92.35
2018-08-10T01:52:54.650Z,92.96
2018-08-10T01:55:23.515Z,93.19
2018-08-10T01:57:52.413Z,90.71
2018-08-10T02:00:21.379Z,86.50
2018-08-10T02:02:50.255Z,94.63
2018-08-10T02:05:19.191Z,98.76
2018-08-10T02:07:48.085Z,99.68
2018-08-10T02:10:18.312Z,100.00
2018-08-10T02:12:51.638Z,100.00
2018-08-10T02:15:20.546Z,99.55
2018-08-10T02:17:49.462Z,100.00
2018-08-10T02:20:19.867Z,100.00
2018-08-10T02:22:49.012Z,98.70
2018-08-10T02:25:19.249Z,95.76
2018-08-10T02:27:49.202Z,97.10
2018-08-10T02:30:19.418Z,96.16
2018-08-10T02:32:48.937Z,96.66
2018-08-10T02:35:17.829Z,93.45
2018-08-10T02:37:46.681Z,91.23
2018-08-10T02:40:18.125Z,90.23
2018-08-10T02:42:47.967Z,93.79
2018-08-10T02:45:17.284Z,91.50
2018-08-10T02:47:46.683Z,90.45
2018-08-10T02:50:15.573Z,89.34
2018-08-10T02:52:44.585Z,90.81
2018-08-10T02:55:14.092Z,91.46
2018-08-10T02:57:43.029Z,91.21
2018-08-10T03:00:15.262Z,93.96
2018-08-10T03:02:44.637Z,92.75
2018-08-10T03:05:13.563Z,92.50
2018-08-10T03:07:42.753Z,96.43
2018-08-10T03:10:12.697Z,94.53
2018-08-10T03:12:41.553Z,95.08
2018-08-10T03:15:12.854Z,94.38
2018-08-10T03:17:41.785Z,92.61
2018-08-10T03:20:11.077Z,93.81
2018-08-10T03:22:40.119Z,93.56
2018-08-10T03:25:10.417Z,94.79
2018-08-10T03:27:39.467Z,95.55
2018-08-10T03:30:09.714Z,95.76
2018-08-10T03:32:38.929Z,97.34
2018-08-10T03:35:07.837Z,98.24
2018-08-10T03:37:37.279Z,100.00
2018-08-10T03:40:08.155Z,98.08
2018-08-10T03:42:37.002Z,97.22
2018-08-10T03:45:06.398Z,94.13
2018-08-10T03:47:35.379Z,95.56
2018-08-10T03:50:04.683Z,95.84
2018-08-10T03:52:33.541Z,93.02
2018-08-10T03:55:02.426Z,92.84
2018-08-10T03:57:31.255Z,94.16
2018-08-10T04:00:00.165Z,96.02
2018-08-10T04:02:29.076Z,93.86
2018-08-10T04:04:57.933Z,91.40
2018-08-10T04:07:26.851Z,88.19
2018-08-10T04:09:55.713Z,87.60
2018-08-10T04:12:24.634Z,88.32
2018-08-10T04:14:53.620Z,89.42
2018-08-10T04:17:24.877Z,90.49
2018-08-10T04:19:54.843Z,88.83
2018-08-10T04:22:24.933Z,86.96
2018-08-10T04:24:53.799Z,88.75
2018-08-10T04:27:22.703Z,91.23
2018-08-10T04:29:51.605Z,91.83
2018-08-10T04:32:20.800Z,91.56
2018-08-10T04:34:49.758Z,92.09
2018-08-10T04:37:19.226Z,91.19
2018-08-10T04:39:48.312Z,92.92
2018-08-10T04:42:17.388Z,92.66
2018-08-10T04:44:46.239Z,93.09
2018-08-10T04:47:15.227Z,100.00
2018-08-10T04:49:44.120Z,100.00
2018-08-10T04:52:12.972Z,100.00
2018-08-10T04:54:41.889Z,100.00
2018-08-10T04:57:13.295Z,100.00
2018-08-10T04:59:42.348Z,100.00
2018-08-10T05:02:11.781Z,100.00
2018-08-10T05:04:40.653Z,100.00
2018-08-10T05:07:09.911Z,100.00
2018-08-10T05:09:38.780Z,100.00
2018-08-10T05:12:07.736Z,100.00
2018-08-10T05:14:36.575Z,100.00
2018-08-10T05:17:05.582Z,100.00
2018-08-10T05:19:34.506Z,100.00
2018-08-10T05:22:03.430Z,100.00
2018-08-10T05:24:32.258Z,100.00
2018-08-10T05:27:01.142Z,100.00
2018-08-10T05:29:29.993Z,100.00
2018-08-10T05:31:58.883Z,100.00
2018-08-10T05:34:27.741Z,100.00
2018-08-10T05:36:56.667Z,100.00
2018-08-10T05:39:25.481Z,100.00
2018-08-10T05:41:54.487Z,100.00
2018-08-10T05:44:23.313Z,100.00
2018-08-10T05:46:52.220Z,100.00
2018-08-10T05:49:21.056Z,100.00
2018-08-10T05:51:49.871Z,100.00
2018-08-10T05:54:18.735Z,100.00
2018-08-10T05:56:47.682Z,100.00
2018-08-10T05:59:16.559Z,100.00
2018-08-10T06:01:45.397Z,100.00
2018-08-10T06:04:14.365Z,100.00
2018-08-10T06:06:43.182Z,100.00
2018-08-10T06:09:15.225Z,100.00
2018-08-10T06:11:44.966Z,100.00
2018-08-10T06:14:14.811Z,100.00
2018-08-10T06:16:43.864Z,100.00
2018-08-10T06:19:12.670Z,100.00
2018-08-10T06:21:41.679Z,100.00
2018-08-10T06:24:10.483Z,100.00
2018-08-10T06:26:39.355Z,100.00
2018-08-10T06:29:08.219Z,96.65
2018-08-10T06:31:37.091Z,91.92
2018-08-10T06:34:05.977Z,85.76
2018-08-10T06:36:34.770Z,90.37
2018-08-10T06:39:03.764Z,82.28
2018-08-10T06:41:32.568Z,92.95
2018-08-10T06:44:01.383Z,84.68
2018-08-10T06:46:30.265Z,74.88
2018-08-10T06:48:59.076Z,77.40
2018-08-10T06:51:27.972Z,75.81
2018-08-10T06:53:56.827Z,86.11
2018-08-10T06:56:25.679Z,81.35
2018-08-10T06:58:54.539Z,83.75
2018-08-10T07:01:23.483Z,76.80
2018-08-10T07:03:52.327Z,76.36
2018-08-10T07:06:21.178Z,87.44
2018-08-10T07:08:50.145Z,77.42
2018-08-10T07:11:19.044Z,80.15
2018-08-10T07:13:47.879Z,82.62
2018-08-10T07:16:16.750Z,76.19
2018-08-10T07:18:46.581Z,76.19
2018-08-10T07:21:15.384Z,77.14
2018-08-10T07:23:44.224Z,75.75
2018-08-10T07:26:13.042Z,77.84
2018-08-10T07:28:41.879Z,74.57
2018-08-10T07:31:10.831Z,74.49
2018-08-10T07:33:39.646Z,70.11
2018-08-10T07:36:08.765Z,71.43
2018-08-10T07:38:37.920Z,63.90
2018-08-10T07:41:06.804Z,59.43
2018-08-10T07:43:35.803Z,67.64
2018-08-10T07:46:04.868Z,69.53
2018-08-10T07:48:37.931Z,63.61
2018-08-10T07:51:07.124Z,70.33
2018-08-10T07:53:36.780Z,58.43
2018-08-10T07:56:05.934Z,59.02
2018-08-10T07:58:35.075Z,53.31
2018-08-10T08:01:04.122Z,53.65
2018-08-10T08:03:33.300Z,53.21
2018-08-10T08:06:02.307Z,53.95
2018-08-10T08:08:31.270Z,57.71
2018-08-10T08:11:00.209Z,55.75
2018-08-10T08:13:29.202Z,52.16
2018-08-10T08:15:58.116Z,49.72
2018-08-10T08:18:27.185Z,52.36
2018-08-10T08:21:05.030Z,52.66
2018-08-10T08:23:34.093Z,53.75
2018-08-10T08:26:03.744Z,53.83
2018-08-10T08:28:32.897Z,51.93
2018-08-10T08:31:02.909Z,53.03
2018-08-10T08:34:09.568Z,56.30
2018-08-10T08:36:38.531Z,53.50
2018-08-10T08:39:28.220Z,51.77
2018-08-10T08:41:57.171Z,46.85
2018-08-10T08:45:40.037Z,46.84
2018-08-10T08:48:08.984Z,50.67
2018-08-10T08:50:40.105Z,48.55
2018-08-10T08:53:09.082Z,49.25
2018-08-10T08:55:40.368Z,46.68
2018-08-10T08:58:09.967Z,43.06
2018-08-10T09:00:39.140Z,43.12
2018-08-10T09:03:13.907Z,44.80
2018-08-10T09:05:42.857Z,47.86
2018-08-10T09:08:12.542Z,45.39
2018-08-10T09:10:41.681Z,46.78
2018-08-10T09:13:10.813Z,43.93
2018-08-10T09:15:39.896Z,42.93
2018-08-10T09:18:09.044Z,43.65
2018-08-10T09:20:38.042Z,45.34
2018-08-10T09:23:08.141Z,45.91
2018-08-10T09:25:37.253Z,44.41
2018-08-10T09:28:06.402Z,43.57
2018-08-10T09:30:35.439Z,43.22
2018-08-10T09:33:05.097Z,38.35
2018-08-10T09:35:34.212Z,37.41
2018-08-10T09:38:03.306Z,34.39
2018-08-10T09:41:04.092Z,35.19
2018-08-10T09:43:33.028Z,37.13
2018-08-10T09:46:02.228Z,36.50
2018-08-10T09:48:31.323Z,36.13
2018-08-10T09:51:00.825Z,35.50
2018-08-10T09:53:29.845Z,34.38
2018-08-10T09:55:58.888Z,33.55
2018-08-10T09:58:27.757Z,36.59
2018-08-10T10:01:00.916Z,37.82
2018-08-10T10:03:29.859Z,39.88
2018-08-10T10:06:00.193Z,37.06
2018-08-10T10:08:29.090Z,36.87
2018-08-10T10:10:58.033Z,37.18
2018-08-10T10:13:27.051Z,37.93
2018-08-10T10:15:55.913Z,33.71
2018-08-10T10:18:25.049Z,35.95
2018-08-10T10:20:54.082Z,37.16
2018-08-10T10:23:23.097Z,34.10
2018-08-10T10:25:52.047Z,35.49
2018-08-10T10:28:21.085Z,40.57
2018-08-10T10:30:49.971Z,39.93
2018-08-10T10:33:19.066Z,41.46
2018-08-10T10:35:47.988Z,38.75
2018-08-10T10:38:16.940Z,39.88
2018-08-10T10:40:45.824Z,38.63
2018-08-10T10:43:14.750Z,39.52
2018-08-10T10:45:43.660Z,40.19
2018-08-10T10:48:12.530Z,40.43
2018-08-10T10:50:41.423Z,38.11
2018-08-10T10:53:10.455Z,39.19
2018-08-10T10:55:39.360Z,38.73
2018-08-10T10:58:08.203Z,36.54
2018-08-10T11:00:37.123Z,35.35
2018-08-10T11:03:06.083Z,36.04
2018-08-10T11:05:34.961Z,37.57
2018-08-10T11:08:04.021Z,35.92
2018-08-10T11:10:33.166Z,34.44
2018-08-10T11:13:02.158Z,33.71
2018-08-10T11:15:31.251Z,39.21
2018-08-10T11:18:00.199Z,33.80
2018-08-10T11:20:29.132Z,34.65
2018-08-10T11:22:58.255Z,34.33
2018-08-10T11:25:30.192Z,37.20
2018-08-10T11:27:59.242Z,35.28
2018-08-10T11:30:28.295Z,33.62
2018-08-10T11:32:57.251Z,36.78
2018-08-10T11:35:26.394Z,36.66
2018-08-10T11:37:55.506Z,35.11
2018-08-10T11:40:24.384Z,37.19
2018-08-10T11:42:53.325Z,36.36
2018-08-10T11:45:22.310Z,35.50
2018-08-10T11:47:51.268Z,35.42
2018-08-10T11:50:20.221Z,34.98
2018-08-10T11:52:49.119Z,33.83
2018-08-10T11:55:18.337Z,37.04
2018-08-10T11:57:47.222Z,39.04
2018-08-10T12:00:16.596Z,38.80
2018-08-10T12:02:45.520Z,36.81
2018-08-10T12:05:14.825Z,35.87
2018-08-10T12:07:43.685Z,35.23
2018-08-10T12:10:12.586Z,34.05
2018-08-10T12:12:41.455Z,33.99
2018-08-10T12:15:12.518Z,36.76
2018-08-10T12:17:41.366Z,40.37
2018-08-10T12:20:10.691Z,35.99
2018-08-10T12:22:40.588Z,36.18
2018-08-10T12:25:10.031Z,35.94
2018-08-10T12:27:38.931Z,35.55
2018-08-10T12:30:09.469Z,34.70
2018-08-10T12:32:38.335Z,35.24
2018-08-10T12:35:07.638Z,32.56
2018-08-10T12:37:36.460Z,32.75
2018-08-10T12:40:05.636Z,34.37
2018-08-10T12:42:34.526Z,34.77
2018-08-10T12:45:03.495Z,35.14
2018-08-10T12:47:32.390Z,36.64
2018-08-10T12:50:01.378Z,37.28
2018-08-10T12:52:30.248Z,33.93
2018-08-10T12:54:59.192Z,34.56
2018-08-10T12:57:28.139Z,33.80
2018-08-10T12:59:57.021Z,34.86
2018-08-10T13:02:26.051Z,34.44
2018-08-10T13:04:54.938Z,36.70
2018-08-10T13:07:23.787Z,34.19
2018-08-10T13:09:52.617Z,34.09
2018-08-10T13:12:21.571Z,33.06
2018-08-10T13:14:50.523Z,32.59
2018-08-10T13:17:19.390Z,36.37
2018-08-10T13:19:48.296Z,36.31
2018-08-10T13:22:17.221Z,36.11
2018-08-10T13:24:46.087Z,34.23
2018-08-10T13:27:14.975Z,33.98
2018-08-10T13:29:43.845Z,33.03
2018-08-10T13:32:12.674Z,33.25
2018-08-10T13:34:41.636Z,33.56
2018-08-10T13:37:10.661Z,34.65
2018-08-10T13:39:39.595Z,32.33
2018-08-10T13:42:08.604Z,34.97
2018-08-10T13:44:37.505Z,33.12
2018-08-10T13:47:06.526Z,32.63
2018-08-10T13:49:35.521Z,33.98
2018-08-10T13:52:04.747Z,30.50
2018-08-10T13:54:33.681Z,31.58
2018-08-10T13:57:02.534Z,32.77
2018-08-10T13:59:31.380Z,30.04
2018-08-10T14:02:00.282Z,30.51
2018-08-10T14:04:29.245Z,32.73
2018-08-10T14:06:58.083Z,31.83
2018-08-10T14:09:27.036Z,31.67
2018-08-10T14:11:55.890Z,30.39
2018-08-10T14:14:24.749Z,32.18
2018-08-10T14:16:53.721Z,33.93
2018-08-10T14:19:22.629Z,33.34
2018-08-10T14:21:51.522Z,33.35
2018-08-10T14:24:20.386Z,32.66
2018-08-10T14:26:49.294Z,33.19
2018-08-10T14:29:18.183Z,34.26
2018-08-10T14:31:47.071Z,36.95
2018-08-10T14:34:16.136Z,33.96
2018-08-10T14:36:45.360Z,33.30
2018-08-10T14:39:14.719Z,34.43
2018-08-10T14:41:43.770Z,32.26
2018-08-10T14:44:12.820Z,33.75
2018-08-10T14:46:41.835Z,32.84
2018-08-10T14:49:10.817Z,32.29
2018-08-10T14:51:39.762Z,32.37
2018-08-10T14:54:08.736Z,33.56
2018-08-10T14:56:37.609Z,33.91
2018-08-10T14:59:08.200Z,31.23
2018-08-10T15:01:37.205Z,33.49
2018-08-10T15:04:06.133Z,33.63
2018-08-10T15:06:35.093Z,33.52
2018-08-10T15:09:05.351Z,34.53
2018-08-10T15:11:34.297Z,34.37
2018-08-10T15:14:03.188Z,33.34
2018-08-10T15:16:32.188Z,33.38
2018-08-10T15:19:01.103Z,33.85
2018-08-10T15:21:29.970Z,35.56
2018-08-10T15:23:58.981Z,35.75
2018-08-10T15:26:27.936Z,35.27
2018-08-10T15:28:56.991Z,36.30
2018-08-10T15:31:26.193Z,36.72
2018-08-10T15:33:55.189Z,37.34
2018-08-10T15:36:24.055Z,39.64
2018-08-10T15:38:53.085Z,39.24
2018-08-10T15:41:22.026Z,39.83
2018-08-10T15:43:50.984Z,39.85
2018-08-10T15:46:20.046Z,40.78
2018-08-10T15:48:49.118Z,41.00
2018-08-10T15:51:18.067Z,40.70
2018-08-10T15:53:47.190Z,39.89
2018-08-10T15:56:16.316Z,39.57
2018-08-10T15:58:45.054Z,37.18
2018-08-10T16:01:14.115Z,36.99
2018-08-10T16:03:43.120Z,38.77
2018-08-10T16:06:12.139Z,38.26
2018-08-10T16:08:41.138Z,40.52
2018-08-10T16:11:10.004Z,40.77
2018-08-10T16:13:38.973Z,39.42
2018-08-10T16:16:08.027Z,37.58
2018-08-10T16:18:36.986Z,39.78
2018-08-10T16:21:05.976Z,39.06
2018-08-10T16:23:35.035Z,37.92
2018-08-10T16:26:04.097Z,37.09
2018-08-10T16:28:33.058Z,36.85
2018-08-10T16:31:01.980Z,35.84
2018-08-10T16:33:30.939Z,35.92
2018-08-10T16:35:59.936Z,37.11
2018-08-10T16:38:28.997Z,37.06
2018-08-10T16:40:57.990Z,43.57
2018-08-10T16:43:26.996Z,38.17
2018-08-10T16:45:55.995Z,38.81
2018-08-10T16:48:25.141Z,37.69
2018-08-10T16:50:54.031Z,37.53
2018-08-10T16:53:22.993Z,38.02
2018-08-10T16:55:52.006Z,36.80
2018-08-10T16:58:21.026Z,38.31
2018-08-10T17:00:50.103Z,39.00
2018-08-10T17:03:19.089Z,39.38
2018-08-10T17:05:48.058Z,39.28
2018-08-10T17:08:16.978Z,39.44
2018-08-10T17:10:45.892Z,40.10
2018-08-10T17:13:14.751Z,37.77
2018-08-10T17:15:43.703Z,38.07
2018-08-10T17:18:12.658Z,38.94
2018-08-10T17:20:41.682Z,39.78
2018-08-10T17:23:10.615Z,39.51
2018-08-10T17:25:39.494Z,39.69
2018-08-10T17:28:08.388Z,39.71
2018-08-10T17:30:37.475Z,40.65
2018-08-10T17:33:06.753Z,40.39
2018-08-10T17:35:35.599Z,39.77
2018-08-10T17:38:04.598Z,39.82
2018-08-10T17:40:33.494Z,40.14
2018-08-10T17:43:02.365Z,39.07
2018-08-10T17:45:31.360Z,39.22
2018-08-10T17:48:00.328Z,38.23
2018-08-10T17:50:29.336Z,38.98
2018-08-10T17:52:59.019Z,38.67
2018-08-10T17:55:27.848Z,38.74
2018-08-10T17:57:56.695Z,39.90
2018-08-10T18:00:27.337Z,40.22
2018-08-10T18:02:56.258Z,39.54
2018-08-10T18:05:25.115Z,38.97
2018-08-10T18:07:54.073Z,40.58
2018-08-10T18:10:23.015Z,39.63
2018-08-10T18:12:51.929Z,40.07
2018-08-10T18:15:21.427Z,41.18
2018-08-10T18:17:50.469Z,39.69
2018-08-10T18:20:20.706Z,39.75
2018-08-10T18:22:50.867Z,40.14
2018-08-10T18:25:20.972Z,41.33
2018-08-10T18:27:49.911Z,40.73
2018-08-10T18:30:20.853Z,41.74
2018-08-10T18:32:50.040Z,41.43
2018-08-10T18:35:19.136Z,50.26
2018-08-10T18:37:48.848Z,48.31
2018-08-10T18:40:18.163Z,46.70
2018-08-10T18:42:48.257Z,46.82
2018-08-10T18:45:19.465Z,45.50
2018-08-10T18:47:48.576Z,47.39
2018-08-10T18:50:18.699Z,49.25
2018-08-10T18:52:47.757Z,49.64
2018-08-10T18:55:18.589Z,49.59
2018-08-10T18:57:47.643Z,50.73
2018-08-10T19:00:18.619Z,53.91
2018-08-10T19:02:48.837Z,53.81
2018-08-10T19:05:18.444Z,51.27
2018-08-10T19:07:48.206Z,53.30
2018-08-10T19:10:22.070Z,54.67
2018-08-10T19:12:51.208Z,50.41
2018-08-10T19:15:20.252Z,52.78
2018-08-10T19:17:49.228Z,55.74
2018-08-10T19:20:18.231Z,52.12
2018-08-10T19:22:47.553Z,54.00
2018-08-10T19:25:17.131Z,55.16
2018-08-10T19:27:46.088Z,55.70
2018-08-10T19:30:22.327Z,54.79
2018-08-10T19:32:51.253Z,52.10
2018-08-10T19:35:20.337Z,52.87
2018-08-10T19:37:49.356Z,55.37
2018-08-10T19:40:19.364Z,55.09
2018-08-10T19:42:48.348Z,53.67
2018-08-10T19:45:17.940Z,57.11
2018-08-10T19:47:46.946Z,52.78
2018-08-10T19:50:17.071Z,52.08
2018-08-10T19:52:46.068Z,53.54
2018-08-10T19:55:15.896Z,52.87
2018-08-10T19:57:44.785Z,53.81
2018-08-10T20:00:15.514Z,54.28
2018-08-10T20:02:46.866Z,54.52
2018-08-10T20:05:15.941Z,55.49
2018-08-10T20:07:44.865Z,55.05
2018-08-10T20:10:14.614Z,55.02
2018-08-10T20:12:43.532Z,54.16
2018-08-10T20:15:14.024Z,54.64
2018-08-10T20:17:43.562Z,54.42
2018-08-10T20:20:14.191Z,54.81
2018-08-10T20:22:44.129Z,55.19
2018-08-10T20:25:14.028Z,54.81
2018-08-10T20:27:42.964Z,55.75
2018-08-10T20:30:13.690Z,55.54
2018-08-10T20:32:42.935Z,56.30
2018-08-10T20:35:13.493Z,56.84
2018-08-10T20:37:42.927Z,56.05
2018-08-10T20:40:14.941Z,56.76
2018-08-10T20:42:44.045Z,57.41
2018-08-10T20:45:13.303Z,56.57
2018-08-10T20:47:42.312Z,57.19
2018-08-10T20:50:14.307Z,57.36
2018-08-10T20:52:43.862Z,57.53
2018-08-10T20:55:12.933Z,57.81
2018-08-10T20:57:41.926Z,58.00
2018-08-10T21:00:12.104Z,58.94
2018-08-10T21:02:42.383Z,58.54
2018-08-10T21:05:11.558Z,58.10
2018-08-10T21:07:40.510Z,58.86
2018-08-10T21:10:12.904Z,58.97
2018-08-10T21:12:42.582Z,58.83
2018-08-10T21:15:12.699Z,59.20
2018-08-10T21:17:42.557Z,59.67
2018-08-10T21:20:13.199Z,59.29
2018-08-10T21:22:42.162Z,60.83
2018-08-10T21:25:11.940Z,60.20
2018-08-10T21:27:41.532Z,61.11
2018-08-10T21:30:16.075Z,61.03
2018-08-10T21:32:45.046Z,61.42
2018-08-10T21:35:13.934Z,60.09
2018-08-10T21:37:42.886Z,60.09
2018-08-10T21:40:12.062Z,60.85
2018-08-10T21:42:41.946Z,60.54
2018-08-10T21:45:10.845Z,59.87
2018-08-10T21:47:39.814Z,60.89
2018-08-10T21:50:12.559Z,61.54
2018-08-10T21:52:42.133Z,62.33
2018-08-10T21:55:11.543Z,61.83
2018-08-10T21:57:40.825Z,61.65
2018-08-10T22:00:18.410Z,61.92
2018-08-10T22:02:47.310Z,62.51
2018-08-10T22:05:16.204Z,62.76
2018-08-10T22:07:45.109Z,62.05
2018-08-10T22:10:14.093Z,61.12
2018-08-10T22:12:47.958Z,59.96
2018-08-10T22:15:22.619Z,60.25
2018-08-10T22:17:56.806Z,60.08
2018-08-10T22:20:25.880Z,59.79
2018-08-10T22:22:54.754Z,60.74
2018-08-10T22:25:23.712Z,57.71
2018-08-10T22:27:52.608Z,57.80
2018-08-10T22:30:21.524Z,57.26
2018-08-10T22:32:50.386Z,55.73
2018-08-10T22:35:19.323Z,55.62
2018-08-10T22:37:48.280Z,54.28
2018-08-10T22:40:17.149Z,54.79
2018-08-10T22:42:46.103Z,55.04
2018-08-10T22:45:14.978Z,54.79
2018-08-10T22:47:43.835Z,54.60
2018-08-10T22:50:12.843Z,54.34
2018-08-10T22:52:41.680Z,54.02
2018-08-10T22:55:10.691Z,55.12
2018-08-10T22:57:39.600Z,55.17
2018-08-10T23:00:08.431Z,55.16
2018-08-10T23:02:37.523Z,57.06
2018-08-10T23:05:06.711Z,55.91
2018-08-10T23:07:35.883Z,57.75
2018-08-10T23:10:06.087Z,58.41
2018-08-10T23:12:35.089Z,59.36
2018-08-10T23:15:04.108Z,59.36
2018-08-10T23:17:32.964Z,59.02
2018-08-10T23:20:01.999Z,58.22
2018-08-10T23:22:30.835Z,59.52
2018-08-10T23:24:59.731Z,59.73
2018-08-10T23:27:28.608Z,63.37
2018-08-10T23:29:57.415Z,66.56
2018-08-10T23:32:26.259Z,69.01
2018-08-10T23:34:55.139Z,69.48
2018-08-10T23:37:24.001Z,68.87
2018-08-10T23:39:52.808Z,70.93
2018-08-10T23:42:21.643Z,73.36
2018-08-10T23:44:50.537Z,70.73
2018-08-10T23:47:19.371Z,71.68
2018-08-10T23:49:48.295Z,74.06
2018-08-10T23:52:17.178Z,77.32
2018-08-10T23:54:46.096Z,76.88
2018-08-10T23:57:14.979Z,70.56
2018-08-10T23:59:43.916Z,70.35
